sensor_id;sensor_type;location;lat;lon;timestamp;pressure;altitude;pressure_sealevel;temperature;humidity
61528;BME280;47395;42.032;-8.634;2023-10-09T00:00:45;76525.91;;;-148.63;61.96
61528;BME280;47395;42.032;-8.634;2023-10-09T00:02:55;76549.94;;;-148.63;62.21
61528;BME280;47395;42.032;-8.634;2023-10-09T00:04:56;76535.94;;;-148.63;61.81
61528;BME280;47395;42.032;-8.634;2023-10-09T00:06:57;76535.94;;;-148.63;62.06
61528;BME280;47395;42.032;-8.634;2023-10-09T00:09:00;76537.94;;;-148.63;62.16
61528;BME280;47395;42.032;-8.634;2023-10-09T00:11:12;76547.94;;;-148.63;62.25
61528;BME280;47395;42.032;-8.634;2023-10-09T00:13:22;76553.94;;;-148.63;62.43
61528;BME280;47395;42.032;-8.634;2023-10-09T00:15:32;76567.94;;;-148.63;62.78
61528;BME280;47395;42.032;-8.634;2023-10-09T00:17:33;76573.94;;;-148.63;62.69
61528;BME280;47395;42.032;-8.634;2023-10-09T00:19:34;76577.94;;;-148.63;63.09
61528;BME280;47395;42.032;-8.634;2023-10-09T00:21:35;76583.94;;;-148.63;63.33
61528;BME280;47395;42.032;-8.634;2023-10-09T00:23:39;76585.97;;;-148.63;63.55
61528;BME280;47395;42.032;-8.634;2023-10-09T00:25:59;76587.97;;;-148.63;63.56
61528;BME280;47395;42.032;-8.634;2023-10-09T00:28:10;76599.97;;;-148.63;63.78
61528;BME280;47395;42.032;-8.634;2023-10-09T00:30:13;76591.97;;;-148.63;63.69
61528;BME280;47395;42.032;-8.634;2023-10-09T00:32:18;76587.97;;;-148.63;63.43
61528;BME280;47395;42.032;-8.634;2023-10-09T00:34:19;76601.97;;;-148.63;63.66
61528;BME280;47395;42.032;-8.634;2023-10-09T00:36:21;76591.97;;;-148.63;63.39
61528;BME280;47395;42.032;-8.634;2023-10-09T00:38:28;76599.97;;;-148.63;63.46
61528;BME280;47395;42.032;-8.634;2023-10-09T00:40:34;76597.97;;;-148.63;63.31
61528;BME280;47395;42.032;-8.634;2023-10-09T00:42:36;76601.97;;;-148.63;63.19
61528;BME280;47395;42.032;-8.634;2023-10-09T00:44:39;76609.97;;;-148.63;63.48
61528;BME280;47395;42.032;-8.634;2023-10-09T00:46:41;76609.97;;;-148.63;63.31
61528;BME280;47395;42.032;-8.634;2023-10-09T00:48:49;76609.97;;;-148.63;63.37
61528;BME280;47395;42.032;-8.634;2023-10-09T00:50:50;76617.97;;;-148.63;63.13
61528;BME280;47395;42.032;-8.634;2023-10-09T00:52:57;76619.97;;;-148.63;63.18
61528;BME280;47395;42.032;-8.634;2023-10-09T00:55:07;76621.97;;;-148.63;63.02
61528;BME280;47395;42.032;-8.634;2023-10-09T00:57:14;76623.97;;;-148.63;62.89
61528;BME280;47395;42.032;-8.634;2023-10-09T00:59:16;76644.00;;;-148.63;63.06
61528;BME280;47395;42.032;-8.634;2023-10-09T01:01:20;76637.97;;;-148.63;63.04
61528;BME280;47395;42.032;-8.634;2023-10-09T01:03:26;76644.00;;;-148.63;63.21
61528;BME280;47395;42.032;-8.634;2023-10-09T01:05:28;76646.00;;;-148.63;63.07
61528;BME280;47395;42.032;-8.634;2023-10-09T01:07:30;76646.00;;;-148.63;63.17
61528;BME280;47395;42.032;-8.634;2023-10-09T01:09:32;76650.00;;;-148.63;63.06
61528;BME280;47395;42.032;-8.634;2023-10-09T01:11:44;76654.00;;;-148.63;62.95
61528;BME280;47395;42.032;-8.634;2023-10-09T01:13:50;76656.00;;;-148.63;63.39
61528;BME280;47395;42.032;-8.634;2023-10-09T01:15:51;76654.00;;;-148.63;63.47
61528;BME280;47395;42.032;-8.634;2023-10-09T01:17:52;76658.00;;;-148.63;63.54
61528;BME280;47395;42.032;-8.634;2023-10-09T01:19:54;76662.00;;;-148.63;63.57
61528;BME280;47395;42.032;-8.634;2023-10-09T01:21:58;76676.00;;;-148.63;63.47
61528;BME280;47395;42.032;-8.634;2023-10-09T01:24:25;76672.00;;;-148.63;63.69
61528;BME280;47395;42.032;-8.634;2023-10-09T01:26:32;76664.00;;;-148.63;63.52
61528;BME280;47395;42.032;-8.634;2023-10-09T01:28:39;76678.00;;;-148.63;63.87
61528;BME280;47395;42.032;-8.634;2023-10-09T01:30:42;76680.00;;;-148.63;63.82
61528;BME280;47395;42.032;-8.634;2023-10-09T01:32:43;76674.00;;;-148.63;63.65
61528;BME280;47395;42.032;-8.634;2023-10-09T01:34:46;76684.00;;;-148.63;63.58
61528;BME280;47395;42.032;-8.634;2023-10-09T01:36:53;76684.00;;;-148.63;63.20
61528;BME280;47395;42.032;-8.634;2023-10-09T01:39:00;76686.00;;;-148.63;63.32
61528;BME280;47395;42.032;-8.634;2023-10-09T01:41:11;76682.00;;;-148.63;63.38
61528;BME280;47395;42.032;-8.634;2023-10-09T01:43:16;76690.00;;;-148.63;63.34
61528;BME280;47395;42.032;-8.634;2023-10-09T01:45:19;76686.00;;;-148.63;63.50
61528;BME280;47395;42.032;-8.634;2023-10-09T01:47:28;76678.00;;;-148.63;63.47
61528;BME280;47395;42.032;-8.634;2023-10-09T01:49:32;76678.00;;;-148.63;63.57
61528;BME280;47395;42.032;-8.634;2023-10-09T01:51:33;76682.00;;;-148.63;63.85
61528;BME280;47395;42.032;-8.634;2023-10-09T01:53:36;76684.00;;;-148.63;63.66
61528;BME280;47395;42.032;-8.634;2023-10-09T01:55:38;76680.00;;;-148.63;63.49
61528;BME280;47395;42.032;-8.634;2023-10-09T01:57:46;76684.00;;;-148.63;63.33
61528;BME280;47395;42.032;-8.634;2023-10-09T01:59:46;76686.00;;;-148.63;63.45
61528;BME280;47395;42.032;-8.634;2023-10-09T02:01:50;76682.00;;;-148.63;63.32
61528;BME280;47395;42.032;-8.634;2023-10-09T02:03:55;76678.00;;;-148.63;63.31
61528;BME280;47395;42.032;-8.634;2023-10-09T02:06:05;76682.00;;;-148.63;63.22
61528;BME280;47395;42.032;-8.634;2023-10-09T02:08:18;76678.00;;;-148.63;63.27
61528;BME280;47395;42.032;-8.634;2023-10-09T02:10:27;76682.00;;;-148.63;63.17
61528;BME280;47395;42.032;-8.634;2023-10-09T02:12:33;76686.00;;;-148.63;63.04
61528;BME280;47395;42.032;-8.634;2023-10-09T02:14:34;76688.00;;;-148.63;63.20
61528;BME280;47395;42.032;-8.634;2023-10-09T02:16:42;76690.00;;;-148.63;63.09
61528;BME280;47395;42.032;-8.634;2023-10-09T02:18:43;76690.00;;;-148.63;62.97
61528;BME280;47395;42.032;-8.634;2023-10-09T02:21:05;76680.00;;;-148.63;62.99
61528;BME280;47395;42.032;-8.634;2023-10-09T02:23:15;76676.00;;;-148.63;62.93
61528;BME280;47395;42.032;-8.634;2023-10-09T02:25:24;76680.00;;;-148.63;62.94
61528;BME280;47395;42.032;-8.634;2023-10-09T02:27:29;76680.00;;;-148.63;62.97
61528;BME280;47395;42.032;-8.634;2023-10-09T02:29:46;76666.00;;;-148.63;63.00
61528;BME280;47395;42.032;-8.634;2023-10-09T02:31:47;76660.00;;;-148.63;63.15
61528;BME280;47395;42.032;-8.634;2023-10-09T02:33:52;76662.00;;;-148.63;63.55
61528;BME280;47395;42.032;-8.634;2023-10-09T02:35:56;76666.00;;;-148.63;63.42
61528;BME280;47395;42.032;-8.634;2023-10-09T02:37:59;76660.00;;;-148.63;63.16
61528;BME280;47395;42.032;-8.634;2023-10-09T02:40:01;76660.00;;;-148.63;63.07
61528;BME280;47395;42.032;-8.634;2023-10-09T02:42:08;76664.00;;;-148.63;62.83
61528;BME280;47395;42.032;-8.634;2023-10-09T02:44:29;76672.00;;;-148.63;62.77
61528;BME280;47395;42.032;-8.634;2023-10-09T02:46:39;76674.00;;;-148.63;62.84
61528;BME280;47395;42.032;-8.634;2023-10-09T02:48:41;76674.00;;;-148.63;62.54
61528;BME280;47395;42.032;-8.634;2023-10-09T02:50:54;76670.00;;;-148.63;62.75
61528;BME280;47395;42.032;-8.634;2023-10-09T02:52:54;76676.00;;;-148.63;62.47
61528;BME280;47395;42.032;-8.634;2023-10-09T02:55:01;76678.00;;;-148.63;62.58
61528;BME280;47395;42.032;-8.634;2023-10-09T02:57:13;76678.00;;;-148.63;62.62
61528;BME280;47395;42.032;-8.634;2023-10-09T02:59:24;76690.00;;;-148.63;62.63
61528;BME280;47395;42.032;-8.634;2023-10-09T03:01:25;76678.00;;;-148.63;62.60
61528;BME280;47395;42.032;-8.634;2023-10-09T03:03:25;76698.03;;;-148.63;62.86
61528;BME280;47395;42.032;-8.634;2023-10-09T03:05:28;76692.00;;;-148.63;62.71
61528;BME280;47395;42.032;-8.634;2023-10-09T03:07:29;76694.03;;;-148.63;62.67
61528;BME280;47395;42.032;-8.634;2023-10-09T03:09:30;76692.00;;;-148.63;62.53
61528;BME280;47395;42.032;-8.634;2023-10-09T03:11:33;76688.00;;;-148.63;62.47
61528;BME280;47395;42.032;-8.634;2023-10-09T03:13:36;76696.03;;;-148.63;62.29
61528;BME280;47395;42.032;-8.634;2023-10-09T03:15:38;76696.03;;;-148.63;62.53
61528;BME280;47395;42.032;-8.634;2023-10-09T03:17:39;76702.03;;;-148.63;62.31
61528;BME280;47395;42.032;-8.634;2023-10-09T03:19:43;76706.03;;;-148.63;62.44
61528;BME280;47395;42.032;-8.634;2023-10-09T03:21:45;76710.03;;;-148.63;62.41
61528;BME280;47395;42.032;-8.634;2023-10-09T03:23:48;76716.03;;;-148.63;62.46
61528;BME280;47395;42.032;-8.634;2023-10-09T03:25:52;76714.03;;;-148.63;62.54
61528;BME280;47395;42.032;-8.634;2023-10-09T03:27:53;76714.03;;;-148.63;62.58
61528;BME280;47395;42.032;-8.634;2023-10-09T03:29:56;76708.03;;;-148.63;62.65
61528;BME280;47395;42.032;-8.634;2023-10-09T03:31:57;76708.03;;;-148.63;62.65
61528;BME280;47395;42.032;-8.634;2023-10-09T03:33:58;76702.03;;;-148.63;62.64
61528;BME280;47395;42.032;-8.634;2023-10-09T03:36:00;76702.03;;;-148.63;62.59
61528;BME280;47395;42.032;-8.634;2023-10-09T03:38:01;76706.03;;;-148.63;62.46
61528;BME280;47395;42.032;-8.634;2023-10-09T03:40:12;76708.03;;;-148.63;62.49
61528;BME280;47395;42.032;-8.634;2023-10-09T03:42:18;76716.03;;;-148.63;62.41
61528;BME280;47395;42.032;-8.634;2023-10-09T03:44:23;76720.03;;;-148.63;62.50
61528;BME280;47395;42.032;-8.634;2023-10-09T03:46:23;76718.03;;;-148.63;62.59
61528;BME280;47395;42.032;-8.634;2023-10-09T03:48:33;76720.03;;;-148.63;62.53
61528;BME280;47395;42.032;-8.634;2023-10-09T03:50:37;76724.03;;;-148.63;62.59
61528;BME280;47395;42.032;-8.634;2023-10-09T03:52:38;76728.03;;;-148.63;62.57
61528;BME280;47395;42.032;-8.634;2023-10-09T03:54:40;76732.03;;;-148.63;62.62
61528;BME280;47395;42.032;-8.634;2023-10-09T03:56:44;76738.03;;;-148.63;62.65
61528;BME280;47395;42.032;-8.634;2023-10-09T03:58:46;76744.03;;;-148.63;62.70
61528;BME280;47395;42.032;-8.634;2023-10-09T04:00:48;76750.06;;;-148.63;62.76
61528;BME280;47395;42.032;-8.634;2023-10-09T04:05:26;76754.06;;;-148.63;63.10
61528;BME280;47395;42.032;-8.634;2023-10-09T04:07:37;76762.06;;;-148.63;63.28
61528;BME280;47395;42.032;-8.634;2023-10-09T04:10:03;76762.06;;;-148.63;63.23
61528;BME280;47395;42.032;-8.634;2023-10-09T04:12:27;76766.06;;;-148.63;63.19
61528;BME280;47395;42.032;-8.634;2023-10-09T04:14:37;76768.06;;;-148.63;63.18
61528;BME280;47395;42.032;-8.634;2023-10-09T04:16:52;76772.06;;;-148.63;62.98
61528;BME280;47395;42.032;-8.634;2023-10-09T04:21:27;76778.06;;;-148.63;62.84
61528;BME280;47395;42.032;-8.634;2023-10-09T04:23:50;76782.06;;;-148.63;62.88
61528;BME280;47395;42.032;-8.634;2023-10-09T04:26:10;76788.06;;;-148.63;63.15
61528;BME280;47395;42.032;-8.634;2023-10-09T04:31:03;76790.06;;;-148.63;62.79
61528;BME280;47395;42.032;-8.634;2023-10-09T04:33:06;76792.06;;;-148.63;62.90
61528;BME280;47395;42.032;-8.634;2023-10-09T04:35:12;76792.06;;;-148.63;62.85
61528;BME280;47395;42.032;-8.634;2023-10-09T04:37:26;76802.09;;;-148.63;62.73
61528;BME280;47395;42.032;-8.634;2023-10-09T04:39:40;76804.09;;;-148.63;62.59
61528;BME280;47395;42.032;-8.634;2023-10-09T04:42:02;76810.09;;;-148.63;62.86
61528;BME280;47395;42.032;-8.634;2023-10-09T04:44:43;76814.09;;;-148.63;62.73
61528;BME280;47395;42.032;-8.634;2023-10-09T04:47:10;76808.09;;;-148.63;62.59
61528;BME280;47395;42.032;-8.634;2023-10-09T04:49:27;76810.09;;;-148.63;62.58
61528;BME280;47395;42.032;-8.634;2023-10-09T04:51:28;76820.09;;;-148.63;62.65
61528;BME280;47395;42.032;-8.634;2023-10-09T04:53:35;76824.09;;;-148.63;62.82
61528;BME280;47395;42.032;-8.634;2023-10-09T04:55:44;76820.09;;;-148.63;62.81
61528;BME280;47395;42.032;-8.634;2023-10-09T04:57:54;76820.09;;;-148.63;62.64
61528;BME280;47395;42.032;-8.634;2023-10-09T05:00:24;76818.09;;;-148.63;62.66
61528;BME280;47395;42.032;-8.634;2023-10-09T05:02:27;76820.09;;;-148.63;62.51
61528;BME280;47395;42.032;-8.634;2023-10-09T05:04:37;76822.09;;;-148.63;62.43
61528;BME280;47395;42.032;-8.634;2023-10-09T05:06:45;76820.09;;;-148.63;62.22
61528;BME280;47395;42.032;-8.634;2023-10-09T05:08:58;76822.09;;;-148.63;62.11
61528;BME280;47395;42.032;-8.634;2023-10-09T05:11:09;76832.09;;;-148.63;62.41
61528;BME280;47395;42.032;-8.634;2023-10-09T05:13:15;76828.09;;;-148.63;62.63
61528;BME280;47395;42.032;-8.634;2023-10-09T05:15:28;76824.09;;;-148.63;62.93
61528;BME280;47395;42.032;-8.634;2023-10-09T05:17:31;76818.09;;;-148.63;62.81
61528;BME280;47395;42.032;-8.634;2023-10-09T05:19:34;76818.09;;;-148.63;62.80
61528;BME280;47395;42.032;-8.634;2023-10-09T05:21:54;76828.09;;;-148.63;63.02
61528;BME280;47395;42.032;-8.634;2023-10-09T05:24:00;76832.09;;;-148.63;63.27
61528;BME280;47395;42.032;-8.634;2023-10-09T05:26:19;76838.09;;;-148.63;63.26
61528;BME280;47395;42.032;-8.634;2023-10-09T05:28:49;76832.09;;;-148.63;63.10
61528;BME280;47395;42.032;-8.634;2023-10-09T05:30:54;76830.09;;;-148.63;62.96
61528;BME280;47395;42.032;-8.634;2023-10-09T05:33:18;76828.09;;;-148.63;62.95
61528;BME280;47395;42.032;-8.634;2023-10-09T05:35:28;76834.09;;;-148.63;62.86
61528;BME280;47395;42.032;-8.634;2023-10-09T05:37:41;76842.09;;;-148.63;62.87
61528;BME280;47395;42.032;-8.634;2023-10-09T05:39:46;76846.09;;;-148.63;62.81
61528;BME280;47395;42.032;-8.634;2023-10-09T05:42:10;76854.13;;;-148.63;62.83
61528;BME280;47395;42.032;-8.634;2023-10-09T05:44:18;76840.09;;;-148.63;62.87
61528;BME280;47395;42.032;-8.634;2023-10-09T05:46:38;76844.09;;;-148.63;62.96
61528;BME280;47395;42.032;-8.634;2023-10-09T05:48:49;76842.09;;;-148.63;62.89
61528;BME280;47395;42.032;-8.634;2023-10-09T05:50:56;76838.09;;;-148.63;62.82
61528;BME280;47395;42.032;-8.634;2023-10-09T05:53:09;76844.09;;;-148.63;62.66
61528;BME280;47395;42.032;-8.634;2023-10-09T05:55:31;76850.13;;;-148.63;62.67
61528;BME280;47395;42.032;-8.634;2023-10-09T05:57:55;76846.09;;;-148.63;62.27
61528;BME280;47395;42.032;-8.634;2023-10-09T06:00:16;76844.09;;;-148.63;62.13
61528;BME280;47395;42.032;-8.634;2023-10-09T06:02:35;76854.13;;;-148.63;62.17
61528;BME280;47395;42.032;-8.634;2023-10-09T06:05:05;76856.13;;;-148.63;62.15
61528;BME280;47395;42.032;-8.634;2023-10-09T06:07:26;76856.13;;;-148.63;62.01
61528;BME280;47395;42.032;-8.634;2023-10-09T06:09:47;76866.13;;;-148.63;61.93
61528;BME280;47395;42.032;-8.634;2023-10-09T06:11:52;76868.13;;;-148.63;61.93
61528;BME280;47395;42.032;-8.634;2023-10-09T06:13:54;76866.13;;;-148.63;62.03
61528;BME280;47395;42.032;-8.634;2023-10-09T06:16:04;76870.13;;;-148.63;62.15
61528;BME280;47395;42.032;-8.634;2023-10-09T06:18:31;76874.13;;;-148.63;62.27
61528;BME280;47395;42.032;-8.634;2023-10-09T06:20:35;76880.13;;;-148.63;62.40
61528;BME280;47395;42.032;-8.634;2023-10-09T06:23:01;76878.13;;;-148.63;62.37
61528;BME280;47395;42.032;-8.634;2023-10-09T06:25:16;76880.13;;;-148.63;62.16
61528;BME280;47395;42.032;-8.634;2023-10-09T06:27:18;76884.13;;;-148.63;62.14
61528;BME280;47395;42.032;-8.634;2023-10-09T06:29:51;76890.13;;;-148.63;61.94
61528;BME280;47395;42.032;-8.634;2023-10-09T06:32:13;76894.13;;;-148.63;61.74
61528;BME280;47395;42.032;-8.634;2023-10-09T06:34:35;76896.13;;;-148.63;61.62
61528;BME280;47395;42.032;-8.634;2023-10-09T06:36:36;76886.13;;;-148.63;61.64
61528;BME280;47395;42.032;-8.634;2023-10-09T06:38:46;76886.13;;;-148.63;61.45
61528;BME280;47395;42.032;-8.634;2023-10-09T06:41:13;76898.13;;;-148.63;61.78
61528;BME280;47395;42.032;-8.634;2023-10-09T06:43:36;76894.13;;;-148.63;61.81
61528;BME280;47395;42.032;-8.634;2023-10-09T06:45:56;76894.13;;;-148.63;61.79
61528;BME280;47395;42.032;-8.634;2023-10-09T06:48:15;76882.13;;;-148.63;61.53
61528;BME280;47395;42.032;-8.634;2023-10-09T06:50:35;76882.13;;;-148.63;61.65
61528;BME280;47395;42.032;-8.634;2023-10-09T06:52:55;76866.13;;;-148.63;61.48
61528;BME280;47395;42.032;-8.634;2023-10-09T06:55:39;76864.13;;;-148.63;61.48
61528;BME280;47395;42.032;-8.634;2023-10-09T06:57:52;76852.13;;;-148.63;61.31
61528;BME280;47395;42.032;-8.634;2023-10-09T06:59:56;76842.09;;;-148.63;61.07
61528;BME280;47395;42.032;-8.634;2023-10-09T07:02:19;76826.09;;;-148.63;60.69
61528;BME280;47395;42.032;-8.634;2023-10-09T07:04:27;76816.09;;;-148.63;60.08
61528;BME280;47395;42.032;-8.634;2023-10-09T07:06:47;76804.09;;;-148.63;59.87
61528;BME280;47395;42.032;-8.634;2023-10-09T07:08:54;76794.06;;;-148.63;59.62
61528;BME280;47395;42.032;-8.634;2023-10-09T07:11:21;76776.06;;;-148.63;59.27
61528;BME280;47395;42.032;-8.634;2023-10-09T07:13:22;76770.06;;;-148.63;59.13
61528;BME280;47395;42.032;-8.634;2023-10-09T07:15:25;76774.06;;;-148.63;59.01
61528;BME280;47395;42.032;-8.634;2023-10-09T07:17:46;76764.06;;;-148.63;59.05
61528;BME280;47395;42.032;-8.634;2023-10-09T07:19:49;76766.06;;;-148.63;59.29
61528;BME280;47395;42.032;-8.634;2023-10-09T07:22:13;76750.06;;;-148.63;59.05
61528;BME280;47395;42.032;-8.634;2023-10-09T07:24:31;76750.06;;;-148.63;59.11
61528;BME280;47395;42.032;-8.634;2023-10-09T07:26:43;76720.03;;;-148.63;58.77
61528;BME280;47395;42.032;-8.634;2023-10-09T07:28:56;76694.03;;;-148.63;58.53
61528;BME280;47395;42.032;-8.634;2023-10-09T07:31:19;76664.00;;;-148.63;58.27
61528;BME280;47395;42.032;-8.634;2023-10-09T07:33:28;76533.94;;;-148.63;56.17
61528;BME280;47395;42.032;-8.634;2023-10-09T07:35:52;76333.81;;;-148.63;52.08
61528;BME280;47395;42.032;-8.634;2023-10-09T07:37:58;76191.75;;;-148.63;49.02
61528;BME280;47395;42.032;-8.634;2023-10-09T07:40:02;76095.72;;;-148.63;47.02
61528;BME280;47395;42.032;-8.634;2023-10-09T07:42:09;75985.66;;;-148.63;45.10
61528;BME280;47395;42.032;-8.634;2023-10-09T07:44:22;75893.63;;;-148.63;43.79
61528;BME280;47395;42.032;-8.634;2023-10-09T07:46:37;75797.59;;;-148.63;42.24
61528;BME280;47395;42.032;-8.634;2023-10-09T07:49:16;75739.56;;;-148.63;41.04
61528;BME280;47395;42.032;-8.634;2023-10-09T07:51:25;75673.53;;;-148.63;40.22
61528;BME280;47395;42.032;-8.634;2023-10-09T07:53:34;75593.53;;;-148.63;39.29
61528;BME280;47395;42.032;-8.634;2023-10-09T07:55:45;75519.50;;;-148.63;38.09
61528;BME280;47395;42.032;-8.634;2023-10-09T07:58:29;75443.47;;;-148.63;37.05
61528;BME280;47395;42.032;-8.634;2023-10-09T08:03:11;75349.47;;;-148.63;36.13
61528;BME280;47395;42.032;-8.634;2023-10-09T08:05:31;75291.44;;;-148.63;35.56
61528;BME280;47395;42.032;-8.634;2023-10-09T08:07:46;75325.44;;;-148.63;35.57
61528;BME280;47395;42.032;-8.634;2023-10-09T08:10:38;75263.44;;;-148.63;34.90
61528;BME280;47395;42.032;-8.634;2023-10-09T08:12:58;75217.44;;;-148.63;34.55
61528;BME280;47395;42.032;-8.634;2023-10-09T08:15:06;75199.41;;;-148.63;33.82
61528;BME280;47395;42.032;-8.634;2023-10-09T08:17:26;75169.41;;;-148.63;33.91
61528;BME280;47395;42.032;-8.634;2023-10-09T08:19:30;75161.41;;;-148.63;33.53
61528;BME280;47395;42.032;-8.634;2023-10-09T08:21:40;75153.41;;;-148.63;33.42
61528;BME280;47395;42.032;-8.634;2023-10-09T08:24:16;75089.41;;;-148.63;33.07
61528;BME280;47395;42.032;-8.634;2023-10-09T08:26:36;75071.41;;;-148.63;32.57
61528;BME280;47395;42.032;-8.634;2023-10-09T08:28:50;75081.41;;;-148.63;32.96
61528;BME280;47395;42.032;-8.634;2023-10-09T08:30:53;75069.41;;;-148.63;32.72
61528;BME280;47395;42.032;-8.634;2023-10-09T08:33:10;75065.38;;;-148.63;32.51
61528;BME280;47395;42.032;-8.634;2023-10-09T08:35:46;75079.41;;;-148.63;32.46
61528;BME280;47395;42.032;-8.634;2023-10-09T08:37:50;75035.38;;;-148.63;32.17
61528;BME280;47395;42.032;-8.634;2023-10-09T08:39:56;74989.38;;;-148.63;32.13
61528;BME280;47395;42.032;-8.634;2023-10-09T08:41:59;74921.38;;;-148.63;31.71
61528;BME280;47395;42.032;-8.634;2023-10-09T08:44:02;74837.34;;;-148.63;30.37
61528;BME280;47395;42.032;-8.634;2023-10-09T08:46:05;74781.34;;;-148.63;29.95
61528;BME280;47395;42.032;-8.634;2023-10-09T08:48:08;74673.34;;;-148.63;28.71
61528;BME280;47395;42.032;-8.634;2023-10-09T08:50:15;74705.34;;;-148.63;29.09
61528;BME280;47395;42.032;-8.634;2023-10-09T08:52:21;74687.34;;;-148.63;29.02
61528;BME280;47395;42.032;-8.634;2023-10-09T08:54:23;74629.34;;;-148.63;28.82
61528;BME280;47395;42.032;-8.634;2023-10-09T08:56:24;74613.34;;;-148.63;28.30
61528;BME280;47395;42.032;-8.634;2023-10-09T08:58:26;74595.34;;;-148.63;28.17
61528;BME280;47395;42.032;-8.634;2023-10-09T09:03:40;74565.34;;;-148.63;28.16
61528;BME280;47395;42.032;-8.634;2023-10-09T09:06:05;74501.34;;;-148.63;27.64
61528;BME280;47395;42.032;-8.634;2023-10-09T09:08:24;74513.34;;;-148.63;28.41
61528;BME280;47395;42.032;-8.634;2023-10-09T09:10:29;74457.34;;;-148.63;26.71
61528;BME280;47395;42.032;-8.634;2023-10-09T09:12:38;74469.34;;;-148.63;27.74
61528;BME280;47395;42.032;-8.634;2023-10-09T09:14:41;74575.34;;;-148.63;28.81
61528;BME280;47395;42.032;-8.634;2023-10-09T09:16:43;74521.34;;;-148.63;27.58
61528;BME280;47395;42.032;-8.634;2023-10-09T09:18:59;74525.34;;;-148.63;27.69
61528;BME280;47395;42.032;-8.634;2023-10-09T09:21:17;74535.34;;;-148.63;28.07
61528;BME280;47395;42.032;-8.634;2023-10-09T09:23:24;74485.34;;;-148.63;27.82
61528;BME280;47395;42.032;-8.634;2023-10-09T09:25:40;74425.31;;;-148.63;27.20
61528;BME280;47395;42.032;-8.634;2023-10-09T09:27:59;74325.31;;;-148.63;26.66
61528;BME280;47395;42.032;-8.634;2023-10-09T09:30:22;74261.31;;;-148.63;26.12
61528;BME280;47395;42.032;-8.634;2023-10-09T09:32:30;74325.31;;;-148.63;26.88
61528;BME280;47395;42.032;-8.634;2023-10-09T09:34:50;74249.31;;;-148.63;26.34
61528;BME280;47395;42.032;-8.634;2023-10-09T09:36:58;74217.34;;;-148.63;26.60
61528;BME280;47395;42.032;-8.634;2023-10-09T09:39:02;74041.34;;;-148.63;24.78
61528;BME280;47395;42.032;-8.634;2023-10-09T09:41:08;74159.34;;;-148.63;26.29
61528;BME280;47395;42.032;-8.634;2023-10-09T09:43:13;74089.34;;;-148.63;25.68
61528;BME280;47395;42.032;-8.634;2023-10-09T09:45:24;74115.34;;;-148.63;25.77
61528;BME280;47395;42.032;-8.634;2023-10-09T09:47:27;74089.34;;;-148.63;25.59
61528;BME280;47395;42.032;-8.634;2023-10-09T09:49:28;74093.34;;;-148.63;26.32
61528;BME280;47395;42.032;-8.634;2023-10-09T09:51:33;74019.34;;;-148.63;24.96
61528;BME280;47395;42.032;-8.634;2023-10-09T09:53:38;73981.34;;;-148.63;24.89
61528;BME280;47395;42.032;-8.634;2023-10-09T09:58:01;73875.34;;;-148.63;24.35
61528;BME280;47395;42.032;-8.634;2023-10-09T10:00:04;73821.38;;;-148.63;23.83
61528;BME280;47395;42.032;-8.634;2023-10-09T10:02:30;73915.34;;;-148.63;24.16
61528;BME280;47395;42.032;-8.634;2023-10-09T10:04:40;74033.34;;;-148.63;24.99
61528;BME280;47395;42.032;-8.634;2023-10-09T10:06:50;73989.34;;;-148.63;25.31
61528;BME280;47395;42.032;-8.634;2023-10-09T10:08:56;73909.34;;;-148.63;24.29
61528;BME280;47395;42.032;-8.634;2023-10-09T10:10:59;73883.34;;;-148.63;24.41
61528;BME280;47395;42.032;-8.634;2023-10-09T10:13:14;73815.38;;;-148.63;23.63
61528;BME280;47395;42.032;-8.634;2023-10-09T10:15:57;73807.38;;;-148.63;23.83
61528;BME280;47395;42.032;-8.634;2023-10-09T10:18:07;73775.38;;;-148.63;23.93
61528;BME280;47395;42.032;-8.634;2023-10-09T10:20:08;73733.38;;;-148.63;23.34
61528;BME280;47395;42.032;-8.634;2023-10-09T10:22:40;73803.38;;;-148.63;24.13
61528;BME280;47395;42.032;-8.634;2023-10-09T10:24:48;73857.34;;;-148.63;24.65
61528;BME280;47395;42.032;-8.634;2023-10-09T10:27:30;73845.34;;;-148.63;24.13
61528;BME280;47395;42.032;-8.634;2023-10-09T10:30:28;73797.38;;;-148.63;23.63
61528;BME280;47395;42.032;-8.634;2023-10-09T10:32:58;73731.38;;;-148.63;23.87
61528;BME280;47395;42.032;-8.634;2023-10-09T10:35:20;73609.41;;;-148.63;22.99
61528;BME280;47395;42.032;-8.634;2023-10-09T10:37:39;73537.41;;;-148.63;22.35
61528;BME280;47395;42.032;-8.634;2023-10-09T10:40:00;73521.41;;;-148.63;22.29
61528;BME280;47395;42.032;-8.634;2023-10-09T10:42:01;73579.41;;;-148.63;22.73
61528;BME280;47395;42.032;-8.634;2023-10-09T10:44:06;73523.41;;;-148.63;22.62
61528;BME280;47395;42.032;-8.634;2023-10-09T10:46:25;73453.44;;;-148.63;22.35
61528;BME280;47395;42.032;-8.634;2023-10-09T10:48:39;73555.41;;;-148.63;23.11
61528;BME280;47395;42.032;-8.634;2023-10-09T10:50:55;73457.44;;;-148.63;22.60
61528;BME280;47395;42.032;-8.634;2023-10-09T10:53:14;73371.44;;;-148.63;21.60
61528;BME280;47395;42.032;-8.634;2023-10-09T10:55:17;73567.41;;;-148.63;22.85
61528;BME280;47395;42.032;-8.634;2023-10-09T10:57:38;73427.44;;;-148.63;22.04
61528;BME280;47395;42.032;-8.634;2023-10-09T11:00:01;73567.41;;;-148.63;22.79
61528;BME280;47395;42.032;-8.634;2023-10-09T11:02:20;73457.44;;;-148.63;21.84
61528;BME280;47395;42.032;-8.634;2023-10-09T11:04:29;73959.34;;;-148.63;24.65
61528;BME280;47395;42.032;-8.634;2023-10-09T11:06:54;73539.41;;;-148.63;22.99
61528;BME280;47395;42.032;-8.634;2023-10-09T11:09:54;73571.41;;;-148.63;22.64
61528;BME280;47395;42.032;-8.634;2023-10-09T11:12:22;73629.41;;;-148.63;23.37
61528;BME280;47395;42.032;-8.634;2023-10-09T11:14:48;73467.41;;;-148.63;22.23
61528;BME280;47395;42.032;-8.634;2023-10-09T11:17:16;73565.41;;;-148.63;22.74
61528;BME280;47395;42.032;-8.634;2023-10-09T11:19:26;73561.41;;;-148.63;22.32
61528;BME280;47395;42.032;-8.634;2023-10-09T11:21:33;73721.38;;;-148.63;23.71
61528;BME280;47395;42.032;-8.634;2023-10-09T11:23:46;73511.41;;;-148.63;21.93